Terminal Aerodrome Forecast
Issued by NWS

Home | Current Version | Previous Version | Text Only | Print | Product List | Glossary On
Versions: 1 2 3 4 5 6 7 8 9 10 11 12
000
FTUS44 KJAN 311100
TAFGTR
TAF
KGTR 311123Z 3112/0112 01003KT P6SM VCSH OVC100
     FM311700 01007KT 6SM -RA BR SCT030 OVC050
     FM312200 04003KT P6SM OVC100=

USA.gov is the U.S. government's official web portal to all federal, state and local government web resources and services.